Time;durP1;ratioP1;P1;durP2;ratioP2;P2;SDS_P1;SDS_P2;PMS_P1;PMS_P2;Temp;Humidity;BMP_temperature;BMP_pressure;BME280_temperature;BME280_humidity;BME280_pressure;Samples;Min_cycle;Max_cycle;Signal;HPM_P1;HPM_P2
2022/03/14 00:00:47;;;;;;;17.63;11.23;;;;;;;13.05;29.61;99969.38;5108637;28;20060;-60
2022/03/14 00:03:14;;;;;;;13.68;10.05;;;;;;;13.03;29.65;99968.59;5109209;28;20079;-61
2022/03/14 00:05:42;;;;;;;15.43;10.30;;;;;;;13.00;29.96;99974.06;5113852;28;20044;-61
2022/03/14 00:08:09;;;;;;;15.80;10.00;;;;;;;12.99;29.94;99977.66;5114100;28;20058;-61
2022/03/14 00:10:36;;;;;;;17.90;10.30;;;;;;;12.97;29.78;99976.94;5113779;28;20055;-62
2022/03/14 00:13:04;;;;;;;16.60;11.27;;;;;;;12.95;29.90;99976.16;5113983;28;20105;-61
2022/03/14 00:15:33;;;;;;;17.23;11.00;;;;;;;12.92;29.80;99968.44;5114116;28;20056;-62
2022/03/14 00:18:03;;;;;;;16.77;10.68;;;;;;;12.88;30.00;99976.56;5114127;28;20048;-59
2022/03/14 00:20:31;;;;;;;16.00;11.02;;;;;;;12.85;30.03;99992.59;5112576;28;20054;-60
2022/03/14 00:22:58;;;;;;;15.75;10.13;;;;;;;12.80;30.09;99989.41;5113781;28;20096;-60
2022/03/14 00:25:26;;;;;;;16.40;10.40;;;;;;;12.75;30.12;99983.56;5113832;28;20048;-62
2022/03/14 00:27:54;;;;;;;18.05;10.40;;;;;;;12.72;30.23;99991.69;5113662;28;20051;-61
2022/03/14 00:30:22;;;;;;;18.35;10.82;;;;;;;12.68;30.32;99993.69;5113408;28;20541;-61
2022/03/14 00:32:49;;;;;;;14.85;9.80;;;;;;;12.66;30.32;100002.59;5113742;28;20052;-60
2022/03/14 00:35:16;;;;;;;13.82;9.57;;;;;;;12.63;30.14;100001.88;5113530;27;20099;-61
2022/03/14 00:37:43;;;;;;;16.77;10.18;;;;;;;12.61;30.37;100001.13;5113470;28;20051;-61
2022/03/14 00:40:11;;;;;;;14.93;9.88;;;;;;;12.61;30.38;100006.41;5113192;28;20142;-60
2022/03/14 00:42:39;;;;;;;16.27;10.77;;;;;;;12.61;30.30;100009.06;5113823;28;20051;-60
2022/03/14 00:45:07;;;;;;;14.95;9.65;;;;;;;12.61;30.29;100006.41;5113321;28;20047;-60
2022/03/14 00:47:34;;;;;;;16.60;9.77;;;;;;;12.60;30.37;100009.97;5113446;27;20116;-60
2022/03/14 00:50:00;;;;;;;14.88;10.18;;;;;;;12.61;30.44;100016.97;5113054;28;20419;-60
2022/03/14 00:52:27;;;;;;;14.52;9.80;;;;;;;12.63;30.55;100028.28;5113154;28;20176;-62
2022/03/14 00:54:53;;;;;;;14.70;9.60;;;;;;;12.64;30.35;100029.13;5113057;28;20051;-61
2022/03/14 00:57:20;;;;;;;14.18;9.70;;;;;;;12.66;30.56;100018.44;5113354;28;20077;-61
2022/03/14 00:59:47;;;;;;;14.07;9.35;;;;;;;12.67;30.88;100028.09;5112740;28;20511;-61
2022/03/14 01:02:14;;;;;;;14.80;10.23;;;;;;;12.69;30.95;100016.50;5112993;28;20468;-61
2022/03/14 01:04:41;;;;;;;17.10;11.00;;;;;;;12.73;30.81;100023.28;5113055;28;20051;-61
2022/03/14 01:07:08;;;;;;;14.38;9.88;;;;;;;12.77;30.83;100026.56;5112904;28;20051;-60
2022/03/14 01:09:35;;;;;;;19.08;10.27;;;;;;;12.79;30.58;100029.97;5112621;28;20124;-61
2022/03/14 01:12:02;;;;;;;13.45;9.57;;;;;;;12.80;30.77;100028.19;5111669;28;20178;-60
2022/03/14 01:14:28;;;;;;;15.40;10.15;;;;;;;12.82;30.80;100034.22;5112400;28;20559;-60
2022/03/14 01:16:55;;;;;;;15.63;9.77;;;;;;;12.84;30.81;100024.41;5112798;28;20495;-61
2022/03/14 01:19:22;;;;;;;13.57;9.52;;;;;;;12.84;30.82;100033.19;5112463;28;20044;-63
2022/03/14 01:21:49;;;;;;;14.13;10.13;;;;;;;12.86;30.63;100036.56;5112691;28;20052;-61
2022/03/14 01:24:15;;;;;;;12.63;9.57;;;;;;;12.87;30.65;100027.69;5112761;28;20055;-61
2022/03/14 01:26:42;;;;;;;17.70;9.98;;;;;;;12.89;30.61;100039.03;5112856;28;20052;-61
2022/03/14 01:29:09;;;;;;;15.40;9.23;;;;;;;12.88;30.63;100036.47;5112649;28;20055;-59
2022/03/14 01:31:35;;;;;;;17.00;9.82;;;;;;;12.88;30.95;100042.63;5112726;28;20055;-60
2022/03/14 01:34:03;;;;;;;14.50;9.65;;;;;;;12.86;30.71;100041.84;5112564;28;20083;-61
2022/03/14 01:36:30;;;;;;;17.92;10.55;;;;;;;12.85;30.69;100041.94;5112411;28;20096;-60
2022/03/14 01:38:58;;;;;;;15.60;10.32;;;;;;;12.83;30.51;100042.06;5112585;28;20112;-60
2022/03/14 01:41:26;;;;;;;15.73;11.23;;;;;;;12.80;30.51;100036.97;5112133;28;20457;-61
2022/03/14 01:43:53;;;;;;;14.80;9.90;;;;;;;12.78;30.56;100041.47;5110925;28;20044;-60
2022/03/14 01:46:20;;;;;;;18.08;10.48;;;;;;;12.76;30.55;100038.91;5112343;28;20763;-60
2022/03/14 01:48:47;;;;;;;14.45;10.20;;;;;;;12.74;30.61;100050.53;5112082;28;20143;-62
2022/03/14 01:51:16;;;;;;;13.93;9.20;;;;;;;12.72;30.84;100033.94;5111905;28;20424;-60
2022/03/14 01:53:43;;;;;;;14.55;9.65;;;;;;;12.71;30.79;100033.06;5111097;28;20055;-61
2022/03/14 01:56:12;;;;;;;13.15;9.57;;;;;;;12.71;30.57;100042.81;5112166;28;20056;-59
2022/03/14 01:58:40;;;;;;;16.48;9.60;;;;;;;12.71;30.94;100038.38;5110722;28;20055;-60
2022/03/14 02:01:06;;;;;;;13.23;9.70;;;;;;;12.71;30.87;100046.28;5110332;28;20056;-59
2022/03/14 02:03:33;;;;;;;14.30;9.75;;;;;;;12.72;30.96;100049.78;5111742;28;20047;-61
2022/03/14 02:06:00;;;;;;;16.13;9.90;;;;;;;12.71;31.14;100045.47;5111995;28;20100;-60
2022/03/14 02:08:26;;;;;;;14.65;10.00;;;;;;;12.72;31.19;100049.78;5111685;28;20047;-61
2022/03/14 02:10:53;;;;;;;14.75;10.18;;;;;;;12.73;31.22;100051.47;5111516;28;20565;-61
2022/03/14 02:13:19;;;;;;;16.52;9.25;;;;;;;12.73;31.35;100048.84;5111758;28;20051;-60
2022/03/14 02:15:46;;;;;;;14.95;9.68;;;;;;;12.74;31.34;100048.75;5111592;28;20491;-60
2022/03/14 02:18:13;;;;;;;12.68;8.48;;;;;;;12.76;31.39;100059.22;5111377;28;20062;-60
2022/03/14 02:20:40;;;;;;;13.45;9.98;;;;;;;12.76;31.46;100053.94;5111478;28;20476;-60
2022/03/14 02:23:06;;;;;;;14.43;8.95;;;;;;;12.75;31.50;100060.19;5111577;28;20047;-60
2022/03/14 02:25:34;;;;;;;13.35;9.68;;;;;;;12.75;31.42;100060.19;5111331;28;20672;-60
2022/03/14 02:28:01;;;;;;;13.35;9.98;;;;;;;12.76;31.51;100059.22;5110818;28;20051;-60
2022/03/14 02:30:28;;;;;;;14.05;9.60;;;;;;;12.76;31.56;100057.41;5109962;28;20112;-60
2022/03/14 02:32:54;;;;;;;12.52;9.27;;;;;;;12.79;31.49;100060.81;5111256;28;20088;-60
2022/03/14 02:35:21;;;;;;;17.33;9.75;;;;;;;12.78;31.79;100070.53;5111137;28;20059;-60
2022/03/14 02:37:47;;;;;;;14.70;9.13;;;;;;;12.80;31.75;100068.66;5111423;28;20040;-61
2022/03/14 02:40:14;;;;;;;15.20;9.88;;;;;;;12.80;31.93;100071.31;5111062;28;20642;-60
2022/03/14 02:42:41;;;;;;;11.95;8.63;;;;;;;12.82;32.32;100076.50;5110788;28;20047;-61
2022/03/14 02:45:09;;;;;;;12.65;8.48;;;;;;;12.82;32.93;100077.31;5111004;28;20101;-62
2022/03/14 02:47:36;;;;;;;11.07;7.55;;;;;;;12.83;33.06;100079.03;5110068;28;20044;-60
2022/03/14 02:50:03;;;;;;;11.80;7.50;;;;;;;12.85;33.45;100082.44;5110932;28;20047;-60
2022/03/14 02:52:30;;;;;;;9.38;7.00;;;;;;;12.87;33.66;100088.44;5111195;28;20097;-61
2022/03/14 02:54:57;;;;;;;9.48;6.53;;;;;;;12.89;34.08;100091.88;5110952;28;20120;-60
2022/03/14 02:57:24;;;;;;;11.55;7.38;;;;;;;12.91;34.26;100097.06;5109737;28;20051;-62
2022/03/14 02:59:50;;;;;;;11.68;7.25;;;;;;;12.95;34.39;100095.06;5110583;28;20104;-61
2022/03/14 03:02:18;;;;;;;10.52;7.25;;;;;;;12.96;34.42;100100.25;5110656;28;20492;-60
2022/03/14 03:04:45;;;;;;;10.05;7.05;;;;;;;12.98;34.42;100106.28;5110959;28;20052;-60
2022/03/14 03:07:11;;;;;;;8.90;6.53;;;;;;;13.00;34.48;100108.84;5110794;28;20574;-60
2022/03/14 03:09:38;;;;;;;11.20;7.47;;;;;;;13.01;34.22;100110.56;5110571;28;20476;-60
2022/03/14 03:12:11;;;;;;;10.30;7.57;;;;;;;13.00;34.37;100117.63;5110704;28;20052;-61
2022/03/14 03:14:38;;;;;;;12.25;8.35;;;;;;;13.01;34.05;100121.97;5109819;28;20112;-59
2022/03/14 03:17:04;;;;;;;11.60;8.55;;;;;;;13.01;33.97;100126.41;5110844;28;20115;-62
2022/03/14 03:19:31;;;;;;;12.38;8.35;;;;;;;13.00;33.74;100129.97;5110535;28;20135;-60
2022/03/14 03:21:58;;;;;;;14.25;8.95;;;;;;;12.98;33.77;100126.59;5110705;28;20043;-59
2022/03/14 03:24:24;;;;;;;12.40;8.65;;;;;;;12.97;33.98;100128.38;5110595;28;20047;-62
2022/03/14 03:26:51;;;;;;;15.60;8.70;;;;;;;12.95;33.73;100132.91;5110674;28;20507;-61
2022/03/14 03:29:18;;;;;;;13.02;8.88;;;;;;;12.92;33.97;100134.88;5110778;28;20552;-60
2022/03/14 03:31:44;;;;;;;17.58;9.82;;;;;;;12.87;33.94;100136.00;5110891;28;20052;-60
2022/03/14 03:34:11;;;;;;;10.55;8.57;;;;;;;12.84;33.96;100144.16;5110407;28;20094;-61
2022/03/14 03:36:38;;;;;;;12.68;8.65;;;;;;;12.79;33.68;100140.06;5110547;28;20572;-60
2022/03/14 03:39:04;;;;;;;12.63;8.60;;;;;;;12.76;33.80;100147.22;5113350;28;20043;-60
2022/03/14 03:41:31;;;;;;;13.27;9.60;;;;;;;12.73;33.91;100138.66;5114346;28;20068;-60
2022/03/14 03:43:58;;;;;;;14.80;9.57;;;;;;;12.72;33.79;100147.53;5114859;28;20625;-62
2022/03/14 03:46:25;;;;;;;13.90;9.55;;;;;;;12.71;33.86;100151.09;5114584;28;20126;-62
2022/03/14 03:48:52;;;;;;;12.85;9.15;;;;;;;12.70;33.78;100165.22;5114389;28;20043;-60
2022/03/14 03:51:18;;;;;;;14.60;9.63;;;;;;;12.69;33.92;100155.63;5114263;28;20643;-61
2022/03/14 03:53:45;;;;;;;12.63;9.13;;;;;;;12.69;33.90;100161.75;5114351;28;20137;-61
2022/03/14 03:56:11;;;;;;;14.60;9.32;;;;;;;12.69;33.81;100166.19;5114220;28;20491;-61
2022/03/14 03:58:38;;;;;;;14.50;9.98;;;;;;;12.67;33.67;100173.34;5114757;28;20100;-59
2022/03/14 04:01:05;;;;;;;15.25;10.07;;;;;;;12.64;34.03;100172.59;5114091;28;20051;-61
2022/03/14 04:03:34;;;;;;;12.77;9.35;;;;;;;12.61;34.49;100175.44;5112946;28;20046;-61
2022/03/14 04:06:01;;;;;;;13.40;8.70;;;;;;;12.60;34.71;100178.97;5112823;28;20486;-60
2022/03/14 04:08:32;;;;;;;13.15;9.23;;;;;;;12.58;35.10;100183.53;5112868;28;20051;-61
2022/03/14 04:10:58;;;;;;;11.02;8.68;;;;;;;12.59;35.42;100187.00;5114215;28;20055;-61
2022/03/14 04:13:29;;;;;;;13.10;8.65;;;;;;;12.59;35.71;100192.28;5114209;28;20055;-61
2022/03/14 04:15:57;;;;;;;11.20;8.13;;;;;;;12.60;35.48;100194.84;5114093;28;20048;-61
2022/03/14 04:18:25;;;;;;;11.35;8.75;;;;;;;12.61;35.81;100188.63;5113816;28;20510;-61
2022/03/14 04:20:53;;;;;;;10.52;7.93;;;;;;;12.61;35.99;100196.56;5113616;28;20073;-62
2022/03/14 04:23:20;;;;;;;11.32;8.70;;;;;;;12.59;36.04;100198.41;5112747;28;20051;-61
2022/03/14 04:25:46;;;;;;;12.38;9.10;;;;;;;12.58;36.33;100201.16;5114004;28;20047;-61
2022/03/14 04:28:14;;;;;;;12.07;9.02;;;;;;;12.53;37.15;100212.00;5113915;28;20104;-61
2022/03/14 04:30:41;;;;;;;12.60;8.70;;;;;;;12.50;37.08;100215.66;5112123;28;20063;-61
2022/03/14 04:33:08;;;;;;;11.57;8.60;;;;;;;12.47;37.21;100214.97;5113637;28;20087;-63
2022/03/14 04:35:36;;;;;;;11.20;8.38;;;;;;;12.45;37.36;100222.16;5113531;28;20047;-61
2022/03/14 04:38:04;;;;;;;11.38;8.27;;;;;;;12.40;37.75;100218.94;5112260;28;20404;-60
2022/03/14 04:40:32;;;;;;;11.65;7.90;;;;;;;12.37;38.10;100222.56;5111909;28;20046;-61
2022/03/14 04:43:06;;;;;;;9.98;8.05;;;;;;;12.30;39.36;100227.34;5113491;28;20047;-60
2022/03/14 04:45:34;;;;;;;9.98;8.43;;;;;;;12.29;38.54;100230.94;5113131;28;20055;-62
2022/03/14 04:48:01;;;;;;;11.57;8.20;;;;;;;12.25;38.52;100232.03;5112050;28;20048;-60
2022/03/14 04:50:28;;;;;;;10.73;7.82;;;;;;;12.22;39.01;100234.84;5112229;28;20048;-59
2022/03/14 04:52:55;;;;;;;11.13;8.20;;;;;;;12.20;39.18;100239.38;5113180;28;20059;-60
2022/03/14 04:55:21;;;;;;;10.88;8.05;;;;;;;12.19;39.55;100237.69;5113230;28;20108;-60
2022/03/14 04:57:48;;;;;;;11.57;8.30;;;;;;;12.18;39.50;100241.25;5113442;28;20084;-59
2022/03/14 05:00:15;;;;;;;10.55;7.70;;;;;;;12.17;39.87;100248.31;5111902;28;20047;-61
2022/03/14 05:02:42;;;;;;;12.65;8.18;;;;;;;12.16;39.92;100257.16;5113495;27;20156;-60
2022/03/14 05:05:13;;;;;;;10.80;7.97;;;;;;;12.15;39.94;100268.63;5111615;28;20059;-62
2022/03/14 05:07:41;;;;;;;11.55;8.43;;;;;;;12.11;40.50;100265.34;5111991;28;20057;-66
2022/03/14 05:10:08;;;;;;;11.35;8.50;;;;;;;12.07;40.41;100269.06;5112914;28;20452;-61
2022/03/14 05:12:34;;;;;;;11.70;8.75;;;;;;;12.02;40.26;100279.00;5112637;28;20434;-60
2022/03/14 05:15:02;;;;;;;11.93;8.20;;;;;;;11.96;40.62;100282.00;5112661;28;20047;-61
2022/03/14 05:17:32;;;;;;;11.05;8.13;;;;;;;11.93;40.89;100290.06;5111208;28;20411;-63
2022/03/14 05:19:59;;;;;;;12.68;7.97;;;;;;;11.89;40.95;100292.00;5112465;28;20478;-62
2022/03/14 05:22:25;;;;;;;11.45;8.88;;;;;;;11.89;41.19;100296.44;5113049;28;20039;-60
2022/03/14 05:24:52;;;;;;;14.13;9.38;;;;;;;11.88;41.10;100300.84;5112975;28;20043;-61
2022/03/14 05:27:18;;;;;;;12.90;9.27;;;;;;;11.87;41.24;100301.78;5112654;28;20069;-60
2022/03/14 05:29:45;;;;;;;14.88;10.10;;;;;;;11.86;41.19;100310.66;5112046;28;20044;-63
2022/03/14 05:32:12;;;;;;;13.63;9.95;;;;;;;11.83;41.41;100311.66;5112349;28;20100;-60
2022/03/14 05:34:38;;;;;;;15.48;10.05;;;;;;;11.82;41.62;100317.03;5112702;28;20461;-60
2022/03/14 05:37:05;;;;;;;13.27;10.10;;;;;;;11.78;41.82;100318.94;5112518;28;20100;-60
2022/03/14 05:39:31;;;;;;;15.48;10.45;;;;;;;11.75;42.21;100319.13;5112407;28;20052;-61
2022/03/14 05:42:01;;;;;;;14.32;10.02;;;;;;;11.73;42.48;100324.47;5110979;28;20550;-61
2022/03/14 05:44:28;;;;;;;14.75;9.75;;;;;;;11.71;42.67;100322.88;5111828;28;20051;-62
2022/03/14 05:46:55;;;;;;;14.13;10.13;;;;;;;11.70;42.59;100321.16;5111787;28;20055;-60
2022/03/14 05:49:22;;;;;;;17.40;10.70;;;;;;;11.68;42.92;100330.94;5111923;28;20077;-60
2022/03/14 05:51:49;;;;;;;14.13;10.52;;;;;;;11.66;43.21;100330.16;5112245;28;20458;-60
2022/03/14 05:54:15;;;;;;;17.73;11.40;;;;;;;11.62;43.26;100332.09;5111961;28;20047;-60
2022/03/14 05:56:43;;;;;;;15.05;10.88;;;;;;;11.58;43.61;100339.31;5110426;28;20484;-61
2022/03/14 05:59:10;;;;;;;16.67;10.60;;;;;;;11.56;43.83;100337.69;5111809;28;20109;-62
2022/03/14 06:01:38;;;;;;;14.80;10.15;;;;;;;11.53;43.93;100335.22;5110370;28;20047;-61
2022/03/14 06:04:05;;;;;;;15.38;11.10;;;;;;;11.50;44.24;100346.78;5110740;28;20078;-60
2022/03/14 06:06:31;;;;;;;16.10;11.35;;;;;;;11.47;44.65;100345.16;5112230;28;20059;-61
2022/03/14 06:08:58;;;;;;;16.83;11.82;;;;;;;11.43;44.97;100343.59;5111843;28;20454;-62
2022/03/14 06:11:25;;;;;;;18.02;12.63;;;;;;;11.40;45.25;100364.00;5111509;28;20055;-60
2022/03/14 06:13:52;;;;;;;19.45;12.55;;;;;;;11.36;45.92;100362.44;5111672;28;20721;-60
2022/03/14 06:16:18;;;;;;;17.58;12.30;;;;;;;11.27;46.23;100359.34;5111658;28;20073;-61
2022/03/14 06:18:45;;;;;;;20.58;14.02;;;;;;;11.15;46.87;100360.81;5111467;28;20048;-60
2022/03/14 06:21:12;;;;;;;19.00;12.52;;;;;;;11.02;47.11;100365.84;5111548;27;20442;-60
2022/03/14 06:23:39;;;;;;;21.92;12.95;;;;;;;10.92;47.43;100367.22;5111576;28;20088;-61
2022/03/14 06:26:05;;;;;;;21.02;13.77;;;;;;;10.81;48.23;100381.75;5111804;28;20574;-61
2022/03/14 06:28:32;;;;;;;19.40;13.00;;;;;;;10.74;48.53;100387.38;5110438;28;20054;-59
2022/03/14 06:30:58;;;;;;;19.83;13.65;;;;;;;10.64;49.13;100382.56;5111432;28;20048;-62
2022/03/14 06:33:25;;;;;;;24.73;13.80;;;;;;;10.57;49.29;100390.81;5111598;28;20051;-60
2022/03/14 06:35:52;;;;;;;17.35;13.18;;;;;;;10.47;49.92;100396.50;5111619;28;20084;-61
2022/03/14 06:38:19;;;;;;;19.02;13.77;;;;;;;10.39;50.39;100393.34;5111320;28;20070;-62
2022/03/14 06:40:46;;;;;;;16.95;12.10;;;;;;;10.32;51.12;100395.38;5111041;28;20055;-60
2022/03/14 06:43:13;;;;;;;20.63;13.07;;;;;;;10.26;51.52;100401.81;5109875;28;20063;-61
2022/03/14 06:45:41;;;;;;;16.83;12.65;;;;;;;10.22;52.09;100394.97;5111117;28;20564;-59
2022/03/14 06:48:07;;;;;;;18.75;12.75;;;;;;;10.18;52.72;100398.66;5111186;28;20055;-60
2022/03/14 06:50:36;;;;;;;17.70;12.30;;;;;;;10.15;53.30;100407.56;5110936;28;20055;-60
2022/03/14 06:53:03;;;;;;;19.02;12.95;;;;;;;10.14;53.76;100411.09;5110858;28;20407;-60
2022/03/14 06:55:30;;;;;;;17.40;12.82;;;;;;;10.11;54.17;100413.88;5109712;28;20552;-60
2022/03/14 06:57:57;;;;;;;17.83;11.48;;;;;;;10.10;54.75;100420.03;5111236;28;20044;-60
2022/03/14 07:00:24;;;;;;;20.23;12.98;;;;;;;10.09;54.92;100417.50;5109493;28;20047;-60
2022/03/14 07:02:50;;;;;;;21.15;13.35;;;;;;;10.08;55.49;100418.41;5110872;28;20078;-60
2022/03/14 07:05:23;;;;;;;17.08;12.73;;;;;;;10.10;55.87;100429.72;5110877;28;20048;-62
2022/03/14 07:07:50;;;;;;;20.70;14.07;;;;;;;10.10;56.50;100427.09;5111008;28;20503;-60
2022/03/14 07:10:17;;;;;;;17.92;13.38;;;;;;;10.11;56.45;100427.03;5109617;28;20051;-59
2022/03/14 07:12:46;;;;;;;19.63;14.20;;;;;;;10.12;57.27;100431.34;5109295;28;20187;-60
2022/03/14 07:15:15;;;;;;;18.80;14.27;;;;;;;10.12;57.95;100431.34;5109517;28;20407;-59
2022/03/14 07:17:41;;;;;;;22.60;14.32;;;;;;;10.14;57.38;100423.41;5109733;28;20044;-59
2022/03/14 07:20:10;;;;;;;18.77;13.77;;;;;;;10.13;57.97;100424.34;5110548;28;20051;-60
2022/03/14 07:22:56;;;;;;;17.38;13.65;;;;;;;10.09;61.24;100426.22;5111188;28;20051;-61
2022/03/14 07:25:28;;;;;;;18.02;13.20;;;;;;;10.13;60.06;100426.97;5109431;28;20040;-60
2022/03/14 07:27:58;;;;;;;14.38;10.00;;;;;;;10.15;58.58;100430.38;5110814;28;20047;-60
2022/03/14 07:30:25;;;;;;;20.00;12.60;;;;;;;10.15;58.44;100425.09;5109134;28;20496;-61
2022/03/14 07:32:52;;;;;;;16.98;13.07;;;;;;;10.14;58.85;100431.28;5110632;28;20043;-63
2022/03/14 07:35:20;;;;;;;15.45;11.73;;;;;;;10.15;58.89;100439.13;5109417;28;20055;-60
2022/03/14 07:37:47;;;;;;;17.52;12.35;;;;;;;10.16;58.72;100432.06;5109411;28;20063;-61
2022/03/14 07:40:14;;;;;;;15.43;11.93;;;;;;;10.20;59.07;100430.16;5110699;28;20135;-60
2022/03/14 07:42:43;;;;;;;17.10;12.65;;;;;;;10.21;59.23;100432.72;5110300;28;20558;-59
2022/03/14 07:45:11;;;;;;;15.70;11.85;;;;;;;10.24;59.74;100429.94;5108888;28;20048;-59
2022/03/14 07:47:39;;;;;;;15.35;11.95;;;;;;;10.29;59.29;100432.38;5109239;28;20048;-60
2022/03/14 07:50:08;;;;;;;14.38;11.82;;;;;;;10.31;59.72;100435.78;5108760;28;20477;-60
2022/03/14 07:52:35;;;;;;;14.18;11.60;;;;;;;10.33;59.44;100443.63;5110446;28;20040;-60
2022/03/14 07:55:07;;;;;;;16.13;11.85;;;;;;;10.34;59.55;100445.31;5110417;28;20060;-60
2022/03/14 07:57:34;;;;;;;14.57;11.18;;;;;;;10.35;59.46;100447.06;5110371;28;20059;-60
2022/03/14 08:00:06;;;;;;;13.75;10.00;;;;;;;10.35;59.32;100444.41;5108828;28;20078;-59
2022/03/14 08:02:32;;;;;;;14.05;9.98;;;;;;;10.37;59.52;100437.28;5110486;28;20043;-62
2022/03/14 08:04:59;;;;;;;13.43;10.00;;;;;;;10.42;59.88;100444.06;5110105;28;20484;-60
2022/03/14 08:07:27;;;;;;;13.77;9.75;;;;;;;10.47;60.18;100449.13;5110183;28;20125;-60
2022/03/14 08:09:55;;;;;;;12.90;9.25;;;;;;;10.55;60.25;100452.28;5110097;28;20056;-61
2022/03/14 08:12:22;;;;;;;10.90;9.30;;;;;;;10.60;59.96;100451.22;5108715;28;20055;-60
2022/03/14 08:14:49;;;;;;;13.25;8.93;;;;;;;10.67;59.95;100456.16;5110361;28;20052;-61
2022/03/14 08:17:20;;;;;;;11.55;8.98;;;;;;;10.73;59.71;100456.78;5110378;28;20047;-60
2022/03/14 08:19:47;;;;;;;10.63;8.68;;;;;;;10.79;59.81;100462.63;5108682;28;20496;-60
2022/03/14 08:22:14;;;;;;;12.32;9.10;;;;;;;10.85;59.80;100471.16;5110323;28;20048;-60
2022/03/14 08:24:40;;;;;;;11.25;8.55;;;;;;;10.87;59.82;100472.78;5110273;28;20399;-60
2022/03/14 08:27:07;;;;;;;10.52;8.23;;;;;;;10.88;59.71;100476.28;5113680;28;20112;-61
2022/03/14 08:29:33;;;;;;;11.93;8.70;;;;;;;10.88;59.37;100471.00;5113330;28;20549;-61
2022/03/14 08:32:00;;;;;;;9.68;7.32;;;;;;;10.85;59.58;100476.41;5113767;28;20123;-60
2022/03/14 08:34:27;;;;;;;10.50;7.63;;;;;;;10.84;59.69;100475.53;5113747;28;20051;-59
2022/03/14 08:36:54;;;;;;;12.55;7.30;;;;;;;10.84;59.92;100479.97;5112510;28;20072;-60
2022/03/14 08:39:20;;;;;;;8.88;6.63;;;;;;;10.84;59.78;100482.63;5113245;28;20047;-60
2022/03/14 08:41:48;;;;;;;8.63;6.35;;;;;;;10.86;59.84;100486.88;5113575;28;20582;-59
2022/03/14 08:44:15;;;;;;;8.57;6.28;;;;;;;10.87;59.74;100493.00;5113605;28;20869;-59
2022/03/14 08:46:42;;;;;;;7.30;6.07;;;;;;;10.89;59.92;100489.38;5112185;28;20051;-59
2022/03/14 08:49:09;;;;;;;8.85;6.97;;;;;;;10.90;59.85;100492.84;5113192;28;20427;-60
2022/03/14 08:51:37;;;;;;;7.30;5.85;;;;;;;10.89;59.90;100492.00;5113280;28;20643;-60
2022/03/14 08:54:04;;;;;;;7.22;5.97;;;;;;;10.90;60.19;100495.47;5111927;28;20084;-61
2022/03/14 08:56:30;;;;;;;8.05;6.35;;;;;;;10.89;59.88;100499.06;5113369;28;20097;-68
2022/03/14 08:58:57;;;;;;;8.40;6.18;;;;;;;10.90;60.07;100500.75;5113163;28;20074;-60
2022/03/14 09:01:25;;;;;;;8.63;5.97;;;;;;;10.88;60.19;100498.19;5112796;27;20044;-61
2022/03/14 09:03:52;;;;;;;7.93;6.45;;;;;;;10.89;60.35;100496.41;5113042;28;20052;-61
2022/03/14 09:06:18;;;;;;;10.40;6.88;;;;;;;10.89;60.21;100504.31;5112769;28;20492;-59
2022/03/14 09:08:45;;;;;;;9.45;6.78;;;;;;;10.88;60.19;100502.63;5113230;28;20056;-60
2022/03/14 09:11:12;;;;;;;8.55;6.70;;;;;;;10.86;60.25;100510.59;5112614;28;20089;-61
2022/03/14 09:13:38;;;;;;;8.27;6.32;;;;;;;10.85;60.60;100508.03;5113059;28;20039;-60
2022/03/14 09:16:07;;;;;;;7.65;6.45;;;;;;;10.82;60.78;100498.47;5112914;28;20415;-61
2022/03/14 09:18:35;;;;;;;8.52;6.85;;;;;;;10.80;60.95;100509.09;5111547;28;20400;-62
2022/03/14 09:21:03;;;;;;;9.80;6.82;;;;;;;10.77;61.01;100517.13;5094474;28;20043;-60
2022/03/14 09:23:30;;;;;;;9.55;7.13;;;;;;;10.77;60.84;100521.53;5113142;28;20044;-59
2022/03/14 09:25:57;;;;;;;10.10;7.47;;;;;;;10.77;61.04;100516.28;5111102;28;20043;-61
2022/03/14 09:28:23;;;;;;;10.70;7.30;;;;;;;10.77;61.23;100521.53;5112764;28;20055;-61
2022/03/14 09:30:50;;;;;;;10.35;7.03;;;;;;;10.76;61.51;100518.06;5112281;28;20051;-60
2022/03/14 09:33:17;;;;;;;10.68;7.03;;;;;;;10.76;61.31;100519.84;5112458;28;20514;-61
2022/03/14 09:35:43;;;;;;;9.05;7.10;;;;;;;10.73;61.46;100520.81;5111951;28;20051;-60
2022/03/14 09:38:14;;;;;;;9.07;7.95;;;;;;;10.73;62.51;100526.06;5112623;27;20055;-60
2022/03/14 09:40:43;;;;;;;9.43;7.72;;;;;;;10.72;62.31;100529.66;5111944;28;20051;-62
2022/03/14 09:43:09;;;;;;;8.52;7.22;;;;;;;10.73;62.50;100536.59;5111206;28;20043;-60
2022/03/14 09:45:37;;;;;;;8.90;7.53;;;;;;;10.73;62.65;100525.25;5112214;28;20502;-60
2022/03/14 09:48:04;;;;;;;10.55;8.30;;;;;;;10.74;62.59;100534.84;5112158;28;20051;-60
2022/03/14 09:50:37;;;;;;;11.07;8.90;;;;;;;10.75;63.35;100540.03;5112259;28;20043;-61
2022/03/14 09:53:08;;;;;;;13.15;9.45;;;;;;;10.76;64.17;100536.47;5112245;28;20048;-60
2022/03/14 09:55:40;;;;;;;11.10;9.05;;;;;;;10.79;63.70;100538.13;5112255;28;20051;-60
2022/03/14 09:58:15;;;;;;;11.02;8.93;;;;;;;10.81;65.35;100545.03;5112079;28;20047;-59
2022/03/14 10:00:43;;;;;;;12.10;9.43;;;;;;;10.88;64.12;100550.03;5110209;28;20051;-62
2022/03/14 10:03:16;;;;;;;11.52;9.43;;;;;;;10.93;64.41;100548.91;5112090;27;20100;-60
2022/03/14 10:05:44;;;;;;;11.38;9.65;;;;;;;10.97;64.54;100549.59;5110547;28;20510;-62
2022/03/14 10:08:12;;;;;;;11.02;8.75;;;;;;;11.03;64.17;100556.38;5110901;28;20681;-62
2022/03/14 10:10:39;;;;;;;13.65;10.02;;;;;;;11.10;64.02;100554.31;5110333;28;20055;-60
2022/03/14 10:13:15;;;;;;;13.57;9.82;;;;;;;11.16;63.77;100560.16;5111750;28;20077;-62
2022/03/14 10:15:42;;;;;;;11.35;9.00;;;;;;;11.23;63.91;100562.47;5110544;28;20055;-60
2022/03/14 10:18:10;;;;;;;10.35;9.25;;;;;;;11.27;63.85;100564.91;5111834;28;20089;-61
2022/03/14 10:20:56;;;;;;;9.98;8.90;;;;;;;11.30;65.52;100569.19;5111523;28;20071;-60
2022/03/14 10:23:52;;;;;;;11.25;9.40;;;;;;;11.32;65.61;100570.81;5110269;28;20100;-60
2022/03/14 10:26:25;;;;;;;11.35;9.00;;;;;;;11.37;64.59;100570.63;5098222;27;20060;-60
2022/03/14 10:28:56;;;;;;;11.13;8.50;;;;;;;11.39;64.60;100575.78;5111629;28;20060;-61
2022/03/14 10:31:42;;;;;;;12.63;9.48;;;;;;;11.40;64.06;100580.16;5111383;28;20051;-60
2022/03/14 10:34:13;;;;;;;12.38;9.55;;;;;;;11.40;64.54;100572.25;5111556;28;20491;-60
2022/03/14 10:36:47;;;;;;;10.25;8.98;;;;;;;11.39;64.08;100584.56;5111577;28;20059;-60
2022/03/14 10:39:28;;;;;;;10.85;9.30;;;;;;;11.36;66.38;100589.13;5109781;28;20454;-63
2022/03/14 10:42:07;;;;;;;10.27;8.75;;;;;;;11.36;66.10;100597.03;5111181;28;20055;-60
2022/03/14 10:44:50;;;;;;;10.70;9.60;;;;;;;11.36;63.92;100597.88;5111194;28;20048;-60
2022/03/14 10:47:19;;;;;;;11.13;8.95;;;;;;;11.36;63.86;100589.13;5109669;28;20163;-60
2022/03/14 10:49:48;;;;;;;10.00;8.70;;;;;;;11.37;63.96;100606.66;5110979;28;20048;-61
2022/03/14 10:52:18;;;;;;;9.68;8.65;;;;;;;11.38;64.01;100595.19;5110997;28;20499;-60
2022/03/14 10:54:45;;;;;;;10.27;8.38;;;;;;;11.41;63.95;100595.91;5110913;28;20050;-59
2022/03/14 10:57:17;;;;;;;10.95;8.80;;;;;;;11.44;64.15;100595.75;5110781;28;20054;-59
2022/03/14 10:59:48;;;;;;;9.85;8.50;;;;;;;11.47;64.54;100603.50;5110823;28;20454;-59
2022/03/14 11:02:20;;;;;;;12.73;8.80;;;;;;;11.52;64.38;100608.59;5109683;28;20040;-61
2022/03/14 11:04:56;;;;;;;42.78;24.85;;;;;;;11.54;64.83;100614.63;5109540;28;20485;-61
2022/03/14 11:07:25;;;;;;;87.90;53.65;;;;;;;11.57;63.99;100617.13;5110682;28;20048;-61
2022/03/14 11:09:56;;;;;;;66.05;46.47;;;;;;;11.57;64.48;100611.84;5109637;28;20078;-60
2022/03/14 11:12:24;;;;;;;20.98;14.85;;;;;;;11.58;64.97;100624.09;5109758;28;20147;-61
2022/03/14 11:15:01;;;;;;;18.83;11.88;;;;;;;11.55;65.89;100618.97;5110797;28;20048;-61
2022/03/14 11:17:32;;;;;;;13.52;11.15;;;;;;;11.58;64.93;100629.38;5109555;28;20048;-60
2022/03/14 11:20:19;;;;;;;17.02;13.40;;;;;;;11.61;64.68;100636.28;5109418;28;20496;-62